Terminal Aerodrome Forecast
Issued by NWS Jackson, MS

Home | Current Version | Previous Version | Text Only | Print | Product List | Glossary On
Versions: 1 2 3 4 5 6 7 8 9 10 11 12
928
FTUS44 KJAN 071720
TAFMEI
TAF
KMEI 071720Z 0718/0818 23005KT P6SM SKC
     FM081600 30014G20KT P6SM BKN250=

USA.gov is the U.S. government's official web portal to all federal, state and local government web resources and services.